sensor_id;sensor_type;location;lat;lon;timestamp;temperature;humidity
18126;DHT22;53956;52.442;13.284;2023-12-29T00:01:03;10.60;99.90
18126;DHT22;53956;52.442;13.284;2023-12-29T00:03:29;10.50;99.90
18126;DHT22;53956;52.442;13.284;2023-12-29T00:05:56;10.60;99.90
18126;DHT22;53956;52.442;13.284;2023-12-29T00:08:23;10.70;99.90
18126;DHT22;53956;52.442;13.284;2023-12-29T00:10:49;10.70;99.90
18126;DHT22;53956;52.442;13.284;2023-12-29T00:13:16;10.70;99.90
18126;DHT22;53956;52.442;13.284;2023-12-29T00:15:51;10.70;99.90
18126;DHT22;53956;52.442;13.284;2023-12-29T00:18:18;10.60;99.90
18126;DHT22;53956;52.442;13.284;2023-12-29T00:20:45;10.60;99.90
18126;DHT22;53956;52.442;13.284;2023-12-29T00:23:11;10.80;99.90
18126;DHT22;53956;52.442;13.284;2023-12-29T00:25:38;10.70;99.90
18126;DHT22;53956;52.442;13.284;2023-12-29T00:28:05;10.70;99.90
18126;DHT22;53956;52.442;13.284;2023-12-29T00:30:32;10.70;99.90
18126;DHT22;53956;52.442;13.284;2023-12-29T00:33:00;10.70;99.90
18126;DHT22;53956;52.442;13.284;2023-12-29T00:35:27;10.60;99.90
18126;DHT22;53956;52.442;13.284;2023-12-29T00:37:54;10.50;99.90
18126;DHT22;53956;52.442;13.284;2023-12-29T00:40:20;10.60;99.90
18126;DHT22;53956;52.442;13.284;2023-12-29T00:42:47;10.70;99.90
18126;DHT22;53956;52.442;13.284;2023-12-29T00:45:13;10.70;99.90
18126;DHT22;53956;52.442;13.284;2023-12-29T00:47:40;10.70;99.90
18126;DHT22;53956;52.442;13.284;2023-12-29T00:50:08;10.80;99.90
18126;DHT22;53956;52.442;13.284;2023-12-29T00:52:35;10.70;99.90
18126;DHT22;53956;52.442;13.284;2023-12-29T00:55:03;10.60;99.90
18126;DHT22;53956;52.442;13.284;2023-12-29T00:57:29;10.60;99.90
18126;DHT22;53956;52.442;13.284;2023-12-29T00:59:56;10.60;99.90
18126;DHT22;53956;52.442;13.284;2023-12-29T01:02:23;10.70;99.90
18126;DHT22;53956;52.442;13.284;2023-12-29T01:04:49;10.60;99.90
18126;DHT22;53956;52.442;13.284;2023-12-29T01:07:17;10.70;99.90
18126;DHT22;53956;52.442;13.284;2023-12-29T01:09:44;10.70;99.90
18126;DHT22;53956;52.442;13.284;2023-12-29T01:12:10;10.60;99.90
18126;DHT22;53956;52.442;13.284;2023-12-29T01:14:37;10.70;99.90
18126;DHT22;53956;52.442;13.284;2023-12-29T01:17:03;10.60;99.90
18126;DHT22;53956;52.442;13.284;2023-12-29T01:19:30;10.70;99.90
18126;DHT22;53956;52.442;13.284;2023-12-29T01:21:57;10.60;99.90
18126;DHT22;53956;52.442;13.284;2023-12-29T01:24:25;10.70;99.90
18126;DHT22;53956;52.442;13.284;2023-12-29T01:26:52;10.70;99.90
18126;DHT22;53956;52.442;13.284;2023-12-29T01:29:18;10.60;99.90
18126;DHT22;53956;52.442;13.284;2023-12-29T01:31:45;10.60;99.90
18126;DHT22;53956;52.442;13.284;2023-12-29T01:34:11;10.60;99.90
18126;DHT22;53956;52.442;13.284;2023-12-29T01:36:38;10.60;99.90
18126;DHT22;53956;52.442;13.284;2023-12-29T01:39:05;10.70;99.90
18126;DHT22;53956;52.442;13.284;2023-12-29T01:41:33;10.60;99.90
18126;DHT22;53956;52.442;13.284;2023-12-29T01:44:19;10.60;99.90
18126;DHT22;53956;52.442;13.284;2023-12-29T01:46:49;10.70;99.90
18126;DHT22;53956;52.442;13.284;2023-12-29T01:49:16;10.70;99.90
18126;DHT22;53956;52.442;13.284;2023-12-29T01:51:44;10.80;99.90
18126;DHT22;53956;52.442;13.284;2023-12-29T01:54:12;10.70;99.90
18126;DHT22;53956;52.442;13.284;2023-12-29T01:56:41;10.60;99.90
18126;DHT22;53956;52.442;13.284;2023-12-29T01:59:09;10.70;99.90
18126;DHT22;53956;52.442;13.284;2023-12-29T02:01:36;10.70;99.90
18126;DHT22;53956;52.442;13.284;2023-12-29T02:04:05;10.70;99.90
18126;DHT22;53956;52.442;13.284;2023-12-29T02:06:32;10.60;99.90
18126;DHT22;53956;52.442;13.284;2023-12-29T02:09:01;10.50;99.90
18126;DHT22;53956;52.442;13.284;2023-12-29T02:11:29;10.70;99.90
18126;DHT22;53956;52.442;13.284;2023-12-29T02:13:57;10.70;99.90
18126;DHT22;53956;52.442;13.284;2023-12-29T02:16:30;10.70;99.90
18126;DHT22;53956;52.442;13.284;2023-12-29T02:19:02;10.60;99.90
18126;DHT22;53956;52.442;13.284;2023-12-29T02:21:30;10.70;99.90
18126;DHT22;53956;52.442;13.284;2023-12-29T02:23:57;10.80;99.90
18126;DHT22;53956;52.442;13.284;2023-12-29T02:26:29;10.80;99.90
18126;DHT22;53956;52.442;13.284;2023-12-29T02:28:59;10.70;99.90
18126;DHT22;53956;52.442;13.284;2023-12-29T02:31:30;10.80;99.90
18126;DHT22;53956;52.442;13.284;2023-12-29T02:33:59;10.70;99.90
18126;DHT22;53956;52.442;13.284;2023-12-29T02:36:29;10.70;99.90
18126;DHT22;53956;52.442;13.284;2023-12-29T02:38:56;10.80;99.90
18126;DHT22;53956;52.442;13.284;2023-12-29T02:41:22;10.70;99.90
18126;DHT22;53956;52.442;13.284;2023-12-29T02:43:51;10.80;99.90
18126;DHT22;53956;52.442;13.284;2023-12-29T02:46:18;10.80;99.90
18126;DHT22;53956;52.442;13.284;2023-12-29T02:48:44;10.80;99.90
18126;DHT22;53956;52.442;13.284;2023-12-29T02:51:12;10.60;99.90
18126;DHT22;53956;52.442;13.284;2023-12-29T02:53:39;10.80;99.90
18126;DHT22;53956;52.442;13.284;2023-12-29T02:56:05;10.80;99.90
18126;DHT22;53956;52.442;13.284;2023-12-29T02:58:32;10.80;99.90
18126;DHT22;53956;52.442;13.284;2023-12-29T03:01:00;10.80;99.90
18126;DHT22;53956;52.442;13.284;2023-12-29T03:03:27;10.80;99.90
18126;DHT22;53956;52.442;13.284;2023-12-29T03:05:54;10.80;99.90
18126;DHT22;53956;52.442;13.284;2023-12-29T03:08:20;10.80;99.90
18126;DHT22;53956;52.442;13.284;2023-12-29T03:10:47;10.80;99.90
18126;DHT22;53956;52.442;13.284;2023-12-29T03:13:14;10.80;99.90
18126;DHT22;53956;52.442;13.284;2023-12-29T03:15:41;10.70;99.90
18126;DHT22;53956;52.442;13.284;2023-12-29T03:18:09;10.80;99.90
18126;DHT22;53956;52.442;13.284;2023-12-29T03:20:35;10.70;99.90
18126;DHT22;53956;52.442;13.284;2023-12-29T03:23:02;10.70;99.90
18126;DHT22;53956;52.442;13.284;2023-12-29T03:25:28;10.80;99.90
18126;DHT22;53956;52.442;13.284;2023-12-29T03:27:55;10.70;99.90
18126;DHT22;53956;52.442;13.284;2023-12-29T03:30:22;10.80;99.90
18126;DHT22;53956;52.442;13.284;2023-12-29T03:32:48;10.70;99.90
18126;DHT22;53956;52.442;13.284;2023-12-29T03:35:16;10.70;99.90
18126;DHT22;53956;52.442;13.284;2023-12-29T03:37:43;10.70;99.90
18126;DHT22;53956;52.442;13.284;2023-12-29T03:40:10;10.80;99.90
18126;DHT22;53956;52.442;13.284;2023-12-29T03:42:38;10.80;99.90
18126;DHT22;53956;52.442;13.284;2023-12-29T03:45:06;10.80;99.90
18126;DHT22;53956;52.442;13.284;2023-12-29T03:47:33;10.80;99.90
18126;DHT22;53956;52.442;13.284;2023-12-29T03:50:01;10.80;99.90
18126;DHT22;53956;52.442;13.284;2023-12-29T03:52:29;10.90;99.90
18126;DHT22;53956;52.442;13.284;2023-12-29T03:54:55;10.80;99.90
18126;DHT22;53956;52.442;13.284;2023-12-29T03:57:22;10.90;99.90
18126;DHT22;53956;52.442;13.284;2023-12-29T03:59:48;11.00;99.90
18126;DHT22;53956;52.442;13.284;2023-12-29T04:02:15;10.90;99.90
18126;DHT22;53956;52.442;13.284;2023-12-29T04:04:45;10.80;99.90
18126;DHT22;53956;52.442;13.284;2023-12-29T04:07:12;10.70;99.90
18126;DHT22;53956;52.442;13.284;2023-12-29T04:09:40;10.80;99.90
18126;DHT22;53956;52.442;13.284;2023-12-29T04:12:07;10.90;99.90
18126;DHT22;53956;52.442;13.284;2023-12-29T04:14:33;10.80;99.90
18126;DHT22;53956;52.442;13.284;2023-12-29T04:17:00;10.90;99.90
18126;DHT22;53956;52.442;13.284;2023-12-29T04:19:29;10.80;99.90
18126;DHT22;53956;52.442;13.284;2023-12-29T04:21:55;10.80;99.90
18126;DHT22;53956;52.442;13.284;2023-12-29T04:24:22;10.80;99.90
18126;DHT22;53956;52.442;13.284;2023-12-29T04:26:50;10.80;99.90
18126;DHT22;53956;52.442;13.284;2023-12-29T04:29:17;10.80;99.90
18126;DHT22;53956;52.442;13.284;2023-12-29T04:31:44;10.80;99.90
18126;DHT22;53956;52.442;13.284;2023-12-29T04:34:14;10.80;99.90
18126;DHT22;53956;52.442;13.284;2023-12-29T04:36:40;10.80;99.90
18126;DHT22;53956;52.442;13.284;2023-12-29T04:39:07;11.00;99.90
18126;DHT22;53956;52.442;13.284;2023-12-29T04:41:34;10.90;99.90
18126;DHT22;53956;52.442;13.284;2023-12-29T04:44:02;10.90;99.90
18126;DHT22;53956;52.442;13.284;2023-12-29T04:46:29;10.90;99.90
18126;DHT22;53956;52.442;13.284;2023-12-29T04:48:55;10.90;99.90
18126;DHT22;53956;52.442;13.284;2023-12-29T04:51:22;10.80;99.90
18126;DHT22;53956;52.442;13.284;2023-12-29T04:53:48;11.00;99.90
18126;DHT22;53956;52.442;13.284;2023-12-29T04:56:15;10.90;99.90
18126;DHT22;53956;52.442;13.284;2023-12-29T04:58:41;10.90;99.90
18126;DHT22;53956;52.442;13.284;2023-12-29T05:01:09;10.90;99.90
18126;DHT22;53956;52.442;13.284;2023-12-29T05:03:36;10.90;99.90
18126;DHT22;53956;52.442;13.284;2023-12-29T05:06:03;10.90;99.90
18126;DHT22;53956;52.442;13.284;2023-12-29T05:08:30;10.90;99.90
18126;DHT22;53956;52.442;13.284;2023-12-29T05:10:57;11.00;99.90
18126;DHT22;53956;52.442;13.284;2023-12-29T05:13:23;11.00;99.90
18126;DHT22;53956;52.442;13.284;2023-12-29T05:15:50;11.00;99.90
18126;DHT22;53956;52.442;13.284;2023-12-29T05:18:18;11.00;99.90
18126;DHT22;53956;52.442;13.284;2023-12-29T05:20:45;10.90;99.90
18126;DHT22;53956;52.442;13.284;2023-12-29T05:23:11;11.00;99.90
18126;DHT22;53956;52.442;13.284;2023-12-29T05:25:38;11.00;99.90
18126;DHT22;53956;52.442;13.284;2023-12-29T05:28:05;11.00;99.90
18126;DHT22;53956;52.442;13.284;2023-12-29T05:30:32;11.00;99.90
18126;DHT22;53956;52.442;13.284;2023-12-29T05:32:58;11.10;99.90
18126;DHT22;53956;52.442;13.284;2023-12-29T05:35:26;10.90;99.90
18126;DHT22;53956;52.442;13.284;2023-12-29T05:37:53;11.00;99.90
18126;DHT22;53956;52.442;13.284;2023-12-29T05:40:19;11.00;99.90
18126;DHT22;53956;52.442;13.284;2023-12-29T05:42:46;11.00;99.90
18126;DHT22;53956;52.442;13.284;2023-12-29T05:45:15;11.10;99.90
18126;DHT22;53956;52.442;13.284;2023-12-29T05:47:42;11.00;99.90
18126;DHT22;53956;52.442;13.284;2023-12-29T05:50:09;11.00;99.90
18126;DHT22;53956;52.442;13.284;2023-12-29T05:52:37;11.10;99.90
18126;DHT22;53956;52.442;13.284;2023-12-29T05:55:04;11.00;99.90
18126;DHT22;53956;52.442;13.284;2023-12-29T05:57:30;11.10;99.90
18126;DHT22;53956;52.442;13.284;2023-12-29T05:59:57;11.10;99.90
18126;DHT22;53956;52.442;13.284;2023-12-29T06:02:23;11.00;99.90
18126;DHT22;53956;52.442;13.284;2023-12-29T06:04:50;11.00;99.90
18126;DHT22;53956;52.442;13.284;2023-12-29T06:07:16;11.00;99.90
18126;DHT22;53956;52.442;13.284;2023-12-29T06:09:44;10.90;99.90
18126;DHT22;53956;52.442;13.284;2023-12-29T06:12:11;11.10;99.90
18126;DHT22;53956;52.442;13.284;2023-12-29T06:14:37;11.00;99.90
18126;DHT22;53956;52.442;13.284;2023-12-29T06:17:04;11.00;99.90
18126;DHT22;53956;52.442;13.284;2023-12-29T06:19:30;11.10;99.90
18126;DHT22;53956;52.442;13.284;2023-12-29T06:21:58;11.10;99.90
18126;DHT22;53956;52.442;13.284;2023-12-29T06:24:25;11.10;99.90
18126;DHT22;53956;52.442;13.284;2023-12-29T06:26:53;11.20;99.90
18126;DHT22;53956;52.442;13.284;2023-12-29T06:29:19;11.00;99.90
18126;DHT22;53956;52.442;13.284;2023-12-29T06:31:46;11.00;99.90
18126;DHT22;53956;52.442;13.284;2023-12-29T06:34:12;11.20;99.90
18126;DHT22;53956;52.442;13.284;2023-12-29T06:36:40;11.10;99.90
18126;DHT22;53956;52.442;13.284;2023-12-29T06:39:06;11.20;99.90
18126;DHT22;53956;52.442;13.284;2023-12-29T06:41:33;11.20;99.90
18126;DHT22;53956;52.442;13.284;2023-12-29T06:44:01;11.20;99.90
18126;DHT22;53956;52.442;13.284;2023-12-29T06:46:27;11.20;99.90
18126;DHT22;53956;52.442;13.284;2023-12-29T06:48:54;11.30;99.90
18126;DHT22;53956;52.442;13.284;2023-12-29T06:51:20;11.20;99.90
18126;DHT22;53956;52.442;13.284;2023-12-29T06:53:48;11.30;99.90
18126;DHT22;53956;52.442;13.284;2023-12-29T06:56:15;11.20;99.90
18126;DHT22;53956;52.442;13.284;2023-12-29T06:58:43;11.30;99.90
18126;DHT22;53956;52.442;13.284;2023-12-29T07:01:11;11.30;99.90
18126;DHT22;53956;52.442;13.284;2023-12-29T07:03:38;11.30;99.90
18126;DHT22;53956;52.442;13.284;2023-12-29T07:06:05;11.40;99.90
18126;DHT22;53956;52.442;13.284;2023-12-29T07:08:31;11.40;99.90
18126;DHT22;53956;52.442;13.284;2023-12-29T07:10:58;11.30;99.90
18126;DHT22;53956;52.442;13.284;2023-12-29T07:13:25;11.40;99.90
18126;DHT22;53956;52.442;13.284;2023-12-29T07:15:51;11.30;99.90
18126;DHT22;53956;52.442;13.284;2023-12-29T07:18:19;11.20;99.90
18126;DHT22;53956;52.442;13.284;2023-12-29T07:20:45;11.30;99.90
18126;DHT22;53956;52.442;13.284;2023-12-29T07:23:12;11.30;99.90
18126;DHT22;53956;52.442;13.284;2023-12-29T07:25:39;11.40;99.90
18126;DHT22;53956;52.442;13.284;2023-12-29T07:28:05;11.30;99.90
18126;DHT22;53956;52.442;13.284;2023-12-29T07:30:32;11.30;99.90
18126;DHT22;53956;52.442;13.284;2023-12-29T07:32:59;11.30;99.90
18126;DHT22;53956;52.442;13.284;2023-12-29T07:35:27;11.40;99.90
18126;DHT22;53956;52.442;13.284;2023-12-29T07:37:54;11.40;99.90
18126;DHT22;53956;52.442;13.284;2023-12-29T07:40:21;11.40;99.90
18126;DHT22;53956;52.442;13.284;2023-12-29T07:42:48;11.50;99.90
18126;DHT22;53956;52.442;13.284;2023-12-29T07:45:15;11.30;99.90
18126;DHT22;53956;52.442;13.284;2023-12-29T07:47:42;11.40;99.90
18126;DHT22;53956;52.442;13.284;2023-12-29T07:50:09;11.50;99.90
18126;DHT22;53956;52.442;13.284;2023-12-29T07:52:37;11.50;99.90
18126;DHT22;53956;52.442;13.284;2023-12-29T07:55:04;11.40;99.90
18126;DHT22;53956;52.442;13.284;2023-12-29T07:57:31;11.50;99.90
18126;DHT22;53956;52.442;13.284;2023-12-29T07:59:57;11.40;99.90
18126;DHT22;53956;52.442;13.284;2023-12-29T08:02:24;11.50;99.90
18126;DHT22;53956;52.442;13.284;2023-12-29T08:04:51;11.50;99.90
18126;DHT22;53956;52.442;13.284;2023-12-29T08:07:17;11.60;99.90
18126;DHT22;53956;52.442;13.284;2023-12-29T08:09:45;11.50;99.90
18126;DHT22;53956;52.442;13.284;2023-12-29T08:12:12;11.60;99.90
18126;DHT22;53956;52.442;13.284;2023-12-29T08:14:39;11.80;99.90
18126;DHT22;53956;52.442;13.284;2023-12-29T08:17:05;11.80;99.90
18126;DHT22;53956;52.442;13.284;2023-12-29T08:19:32;12.10;99.90
18126;DHT22;53956;52.442;13.284;2023-12-29T08:21:59;12.00;99.90
18126;DHT22;53956;52.442;13.284;2023-12-29T08:24:25;12.10;99.90
18126;DHT22;53956;52.442;13.284;2023-12-29T08:26:53;12.20;99.90
18126;DHT22;53956;52.442;13.284;2023-12-29T08:29:20;12.00;99.90
18126;DHT22;53956;52.442;13.284;2023-12-29T08:31:47;12.10;99.90
18126;DHT22;53956;52.442;13.284;2023-12-29T08:34:13;11.90;99.90
18126;DHT22;53956;52.442;13.284;2023-12-29T08:36:40;12.00;99.90
18126;DHT22;53956;52.442;13.284;2023-12-29T08:39:07;12.20;99.90
18126;DHT22;53956;52.442;13.284;2023-12-29T08:41:34;12.30;99.90
18126;DHT22;53956;52.442;13.284;2023-12-29T08:44:03;12.30;99.90
18126;DHT22;53956;52.442;13.284;2023-12-29T08:46:29;12.30;99.90
18126;DHT22;53956;52.442;13.284;2023-12-29T08:48:56;12.20;99.90
18126;DHT22;53956;52.442;13.284;2023-12-29T08:51:22;12.10;99.90
18126;DHT22;53956;52.442;13.284;2023-12-29T08:53:49;12.10;99.90
18126;DHT22;53956;52.442;13.284;2023-12-29T08:56:16;12.20;99.90
18126;DHT22;53956;52.442;13.284;2023-12-29T08:58:43;12.10;99.90
18126;DHT22;53956;52.442;13.284;2023-12-29T09:01:11;12.10;99.90
18126;DHT22;53956;52.442;13.284;2023-12-29T09:03:37;12.00;99.90
18126;DHT22;53956;52.442;13.284;2023-12-29T09:06:04;12.10;99.90
18126;DHT22;53956;52.442;13.284;2023-12-29T09:08:34;12.00;99.90
18126;DHT22;53956;52.442;13.284;2023-12-29T09:11:00;12.10;99.90
18126;DHT22;53956;52.442;13.284;2023-12-29T09:13:27;12.30;99.90
18126;DHT22;53956;52.442;13.284;2023-12-29T09:15:54;12.30;99.90
18126;DHT22;53956;52.442;13.284;2023-12-29T09:18:22;12.30;99.90
18126;DHT22;53956;52.442;13.284;2023-12-29T09:20:49;12.40;99.90
18126;DHT22;53956;52.442;13.284;2023-12-29T09:23:16;12.40;99.90
18126;DHT22;53956;52.442;13.284;2023-12-29T09:25:42;12.30;99.90
18126;DHT22;53956;52.442;13.284;2023-12-29T09:28:09;12.40;99.90
18126;DHT22;53956;52.442;13.284;2023-12-29T09:30:35;12.40;99.90
18126;DHT22;53956;52.442;13.284;2023-12-29T09:33:02;12.30;99.90
18126;DHT22;53956;52.442;13.284;2023-12-29T09:35:30;12.40;99.90
18126;DHT22;53956;52.442;13.284;2023-12-29T09:37:57;12.30;99.90
18126;DHT22;53956;52.442;13.284;2023-12-29T09:40:24;12.40;99.90
18126;DHT22;53956;52.442;13.284;2023-12-29T09:42:52;12.30;99.90
18126;DHT22;53956;52.442;13.284;2023-12-29T09:45:23;12.40;99.90
18126;DHT22;53956;52.442;13.284;2023-12-29T09:47:51;12.50;99.90
18126;DHT22;53956;52.442;13.284;2023-12-29T09:50:19;12.40;99.90
18126;DHT22;53956;52.442;13.284;2023-12-29T09:52:48;12.50;99.90
18126;DHT22;53956;52.442;13.284;2023-12-29T09:55:15;12.50;99.90
18126;DHT22;53956;52.442;13.284;2023-12-29T09:57:42;12.50;99.90
18126;DHT22;53956;52.442;13.284;2023-12-29T10:00:11;12.60;99.90
18126;DHT22;53956;52.442;13.284;2023-12-29T10:02:38;12.60;99.90
18126;DHT22;53956;52.442;13.284;2023-12-29T10:05:07;12.50;99.90
18126;DHT22;53956;52.442;13.284;2023-12-29T10:07:36;12.50;99.90
18126;DHT22;53956;52.442;13.284;2023-12-29T10:10:06;12.60;99.90
18126;DHT22;53956;52.442;13.284;2023-12-29T10:12:33;12.60;99.90
18126;DHT22;53956;52.442;13.284;2023-12-29T10:15:05;12.40;99.90
18126;DHT22;53956;52.442;13.284;2023-12-29T10:17:46;12.50;99.90
18126;DHT22;53956;52.442;13.284;2023-12-29T10:20:23;12.60;99.90
18126;DHT22;53956;52.442;13.284;2023-12-29T10:22:54;12.70;99.90
18126;DHT22;53956;52.442;13.284;2023-12-29T10:25:28;12.70;99.90
18126;DHT22;53956;52.442;13.284;2023-12-29T10:27:56;12.80;99.90
18126;DHT22;53956;52.442;13.284;2023-12-29T10:30:23;12.80;99.90
18126;DHT22;53956;52.442;13.284;2023-12-29T10:32:50;12.80;99.90
18126;DHT22;53956;52.442;13.284;2023-12-29T10:35:17;12.70;99.90
18126;DHT22;53956;52.442;13.284;2023-12-29T10:37:43;12.70;99.90
18126;DHT22;53956;52.442;13.284;2023-12-29T10:40:16;12.70;99.90
18126;DHT22;53956;52.442;13.284;2023-12-29T10:42:53;12.80;99.90
18126;DHT22;53956;52.442;13.284;2023-12-29T10:45:20;12.80;99.90
18126;DHT22;53956;52.442;13.284;2023-12-29T10:47:47;12.80;99.90
18126;DHT22;53956;52.442;13.284;2023-12-29T10:50:14;12.90;99.90
18126;DHT22;53956;52.442;13.284;2023-12-29T10:52:41;12.90;99.90
18126;DHT22;53956;52.442;13.284;2023-12-29T10:55:09;12.90;99.90
18126;DHT22;53956;52.442;13.284;2023-12-29T10:57:36;12.90;99.90
18126;DHT22;53956;52.442;13.284;2023-12-29T11:00:06;12.90;99.90
18126;DHT22;53956;52.442;13.284;2023-12-29T11:02:33;12.90;99.90
18126;DHT22;53956;52.442;13.284;2023-12-29T11:05:04;12.90;99.90
18126;DHT22;53956;52.442;13.284;2023-12-29T11:07:33;13.00;99.90
18126;DHT22;53956;52.442;13.284;2023-12-29T11:10:01;13.00;99.90
18126;DHT22;53956;52.442;13.284;2023-12-29T11:12:30;13.00;99.90
18126;DHT22;53956;52.442;13.284;2023-12-29T11:14:58;13.00;99.90
18126;DHT22;53956;52.442;13.284;2023-12-29T11:17:29;12.90;99.90
18126;DHT22;53956;52.442;13.284;2023-12-29T11:19:58;12.90;99.90
18126;DHT22;53956;52.442;13.284;2023-12-29T11:22:27;13.00;99.90
18126;DHT22;53956;52.442;13.284;2023-12-29T11:24:54;12.90;99.90
18126;DHT22;53956;52.442;13.284;2023-12-29T11:27:21;12.90;99.90
18126;DHT22;53956;52.442;13.284;2023-12-29T11:29:49;13.00;99.90
18126;DHT22;53956;52.442;13.284;2023-12-29T11:32:20;12.90;99.90
18126;DHT22;53956;52.442;13.284;2023-12-29T11:34:53;13.00;99.90
18126;DHT22;53956;52.442;13.284;2023-12-29T11:37:28;12.90;99.90
18126;DHT22;53956;52.442;13.284;2023-12-29T11:40:09;13.00;99.90
18126;DHT22;53956;52.442;13.284;2023-12-29T11:42:40;13.00;99.90
18126;DHT22;53956;52.442;13.284;2023-12-29T11:45:25;12.90;99.90
18126;DHT22;53956;52.442;13.284;2023-12-29T11:47:52;12.90;99.90
18126;DHT22;53956;52.442;13.284;2023-12-29T11:50:32;13.00;99.90
18126;DHT22;53956;52.442;13.284;2023-12-29T11:52:59;12.90;99.90
18126;DHT22;53956;52.442;13.284;2023-12-29T11:55:30;12.90;99.90
18126;DHT22;53956;52.442;13.284;2023-12-29T11:57:57;12.90;99.90
18126;DHT22;53956;52.442;13.284;2023-12-29T12:00:43;12.90;99.90
18126;DHT22;53956;52.442;13.284;2023-12-29T12:03:14;12.90;99.90
18126;DHT22;53956;52.442;13.284;2023-12-29T12:05:46;12.90;99.90
18126;DHT22;53956;52.442;13.284;2023-12-29T12:08:27;12.90;99.90
18126;DHT22;53956;52.442;13.284;2023-12-29T12:10:54;12.90;99.90
18126;DHT22;53956;52.442;13.284;2023-12-29T12:13:42;12.90;99.90
18126;DHT22;53956;52.442;13.284;2023-12-29T12:16:09;12.90;99.90
18126;DHT22;53956;52.442;13.284;2023-12-29T12:18:38;12.80;99.90
18126;DHT22;53956;52.442;13.284;2023-12-29T12:21:07;12.80;99.90
18126;DHT22;53956;52.442;13.284;2023-12-29T12:23:35;12.90;99.90
18126;DHT22;53956;52.442;13.284;2023-12-29T12:26:04;12.90;99.90
18126;DHT22;53956;52.442;13.284;2023-12-29T12:28:32;12.80;99.90
18126;DHT22;53956;52.442;13.284;2023-12-29T12:31:05;12.80;99.90
18126;DHT22;53956;52.442;13.284;2023-12-29T12:33:32;12.80;99.90
18126;DHT22;53956;52.442;13.284;2023-12-29T12:35:59;12.80;99.90
18126;DHT22;53956;52.442;13.284;2023-12-29T12:38:27;12.80;99.90
18126;DHT22;53956;52.442;13.284;2023-12-29T12:40:56;12.80;99.90
18126;DHT22;53956;52.442;13.284;2023-12-29T12:43:25;12.80;99.90
18126;DHT22;53956;52.442;13.284;2023-12-29T12:45:54;12.80;99.90
18126;DHT22;53956;52.442;13.284;2023-12-29T12:48:24;12.80;99.90
18126;DHT22;53956;52.442;13.284;2023-12-29T12:50:55;12.90;99.90
18126;DHT22;53956;52.442;13.284;2023-12-29T12:53:24;12.90;99.90
18126;DHT22;53956;52.442;13.284;2023-12-29T12:55:52;12.80;99.90
18126;DHT22;53956;52.442;13.284;2023-12-29T12:58:19;12.90;99.90
18126;DHT22;53956;52.442;13.284;2023-12-29T13:00:47;12.80;99.90
18126;DHT22;53956;52.442;13.284;2023-12-29T13:03:14;12.80;99.90
18126;DHT22;53956;52.442;13.284;2023-12-29T13:05:42;12.80;99.90
18126;DHT22;53956;52.442;13.284;2023-12-29T13:08:09;12.80;99.90
18126;DHT22;53956;52.442;13.284;2023-12-29T13:10:40;12.70;99.90
18126;DHT22;53956;52.442;13.284;2023-12-29T13:13:08;12.70;99.90
18126;DHT22;53956;52.442;13.284;2023-12-29T13:15:35;12.70;99.90
18126;DHT22;53956;52.442;13.284;2023-12-29T13:18:02;12.70;99.90
18126;DHT22;53956;52.442;13.284;2023-12-29T13:20:28;12.70;99.90
18126;DHT22;53956;52.442;13.284;2023-12-29T13:22:55;12.70;99.90
18126;DHT22;53956;52.442;13.284;2023-12-29T13:25:24;12.70;99.90
18126;DHT22;53956;52.442;13.284;2023-12-29T13:27:53;12.70;99.90
18126;DHT22;53956;52.442;13.284;2023-12-29T13:30:22;12.80;99.90
18126;DHT22;53956;52.442;13.284;2023-12-29T13:32:49;12.60;99.90
18126;DHT22;53956;52.442;13.284;2023-12-29T13:35:21;12.70;99.90
18126;DHT22;53956;52.442;13.284;2023-12-29T13:37:53;12.70;99.90
18126;DHT22;53956;52.442;13.284;2023-12-29T13:40:25;12.80;99.90
18126;DHT22;53956;52.442;13.284;2023-12-29T13:42:57;12.70;99.90
18126;DHT22;53956;52.442;13.284;2023-12-29T13:45:25;12.60;99.90
18126;DHT22;53956;52.442;13.284;2023-12-29T13:47:53;12.80;99.90
18126;DHT22;53956;52.442;13.284;2023-12-29T13:50:21;12.80;99.90
18126;DHT22;53956;52.442;13.284;2023-12-29T13:52:49;12.80;99.90
18126;DHT22;53956;52.442;13.284;2023-12-29T13:55:21;12.80;99.90
18126;DHT22;53956;52.442;13.284;2023-12-29T13:57:48;12.80;99.90
18126;DHT22;53956;52.442;13.284;2023-12-29T14:00:16;12.70;99.90
18126;DHT22;53956;52.442;13.284;2023-12-29T14:02:48;12.80;99.90
18126;DHT22;53956;52.442;13.284;2023-12-29T14:05:19;12.70;99.90
18126;DHT22;53956;52.442;13.284;2023-12-29T14:07:55;12.80;99.90
18126;DHT22;53956;52.442;13.284;2023-12-29T14:10:29;12.80;99.90
18126;DHT22;53956;52.442;13.284;2023-12-29T14:13:02;12.80;99.90
18126;DHT22;53956;52.442;13.284;2023-12-29T14:15:34;12.70;99.90
18126;DHT22;53956;52.442;13.284;2023-12-29T14:18:04;12.80;99.90
18126;DHT22;53956;52.442;13.284;2023-12-29T14:20:35;12.80;99.90
18126;DHT22;53956;52.442;13.284;2023-12-29T14:23:02;12.90;99.90
18126;DHT22;53956;52.442;13.284;2023-12-29T14:25:30;12.80;99.90
18126;DHT22;53956;52.442;13.284;2023-12-29T14:27:59;12.80;99.90
18126;DHT22;53956;52.442;13.284;2023-12-29T14:30:26;12.80;99.90
18126;DHT22;53956;52.442;13.284;2023-12-29T14:32:54;12.80;99.90
18126;DHT22;53956;52.442;13.284;2023-12-29T14:35:22;12.90;99.90
18126;DHT22;53956;52.442;13.284;2023-12-29T14:37:48;12.80;99.90
18126;DHT22;53956;52.442;13.284;2023-12-29T14:40:15;12.80;99.90
18126;DHT22;53956;52.442;13.284;2023-12-29T14:42:42;12.90;99.90
18126;DHT22;53956;52.442;13.284;2023-12-29T14:45:09;12.90;99.90
18126;DHT22;53956;52.442;13.284;2023-12-29T14:47:36;12.70;99.90
18126;DHT22;53956;52.442;13.284;2023-12-29T14:50:03;12.90;99.90
18126;DHT22;53956;52.442;13.284;2023-12-29T14:52:31;12.90;99.90
18126;DHT22;53956;52.442;13.284;2023-12-29T14:54:57;12.90;99.90
18126;DHT22;53956;52.442;13.284;2023-12-29T14:57:24;12.80;99.90
18126;DHT22;53956;52.442;13.284;2023-12-29T14:59:50;12.90;99.90
18126;DHT22;53956;52.442;13.284;2023-12-29T20:32:33;10.20;99.90
18126;DHT22;53956;52.442;13.284;2023-12-29T20:35:00;11.60;99.90
18126;DHT22;53956;52.442;13.284;2023-12-29T20:37:27;11.70;99.90
18126;DHT22;53956;52.442;13.284;2023-12-29T20:39:54;11.80;99.90
18126;DHT22;53956;52.442;13.284;2023-12-29T20:42:22;11.90;99.90
18126;DHT22;53956;52.442;13.284;2023-12-29T20:44:48;11.90;99.90
18126;DHT22;53956;52.442;13.284;2023-12-29T20:47:15;12.00;99.90
18126;DHT22;53956;52.442;13.284;2023-12-29T20:49:43;11.90;99.90